sensor_id;sensor_type;location;lat;lon;timestamp;temperature;humidity
2190;DHT22;1101;51.056;7.262;2023-05-10T00:01:00;13.20;99.90
2190;DHT22;1101;51.056;7.262;2023-05-10T00:03:29;13.10;99.90
2190;DHT22;1101;51.056;7.262;2023-05-10T00:05:56;13.10;99.90
2190;DHT22;1101;51.056;7.262;2023-05-10T00:08:24;13.10;99.90
2190;DHT22;1101;51.056;7.262;2023-05-10T00:10:52;13.10;99.90
2190;DHT22;1101;51.056;7.262;2023-05-10T00:13:20;13.00;99.90
2190;DHT22;1101;51.056;7.262;2023-05-10T00:15:49;13.00;99.90
2190;DHT22;1101;51.056;7.262;2023-05-10T00:18:17;13.00;99.90
2190;DHT22;1101;51.056;7.262;2023-05-10T00:20:45;13.00;99.90
2190;DHT22;1101;51.056;7.262;2023-05-10T00:23:13;13.00;99.90
2190;DHT22;1101;51.056;7.262;2023-05-10T00:25:41;13.00;99.90
2190;DHT22;1101;51.056;7.262;2023-05-10T00:28:08;13.10;99.90
2190;DHT22;1101;51.056;7.262;2023-05-10T00:30:36;13.10;99.90
2190;DHT22;1101;51.056;7.262;2023-05-10T00:33:05;13.10;99.90
2190;DHT22;1101;51.056;7.262;2023-05-10T00:35:33;13.10;99.90
2190;DHT22;1101;51.056;7.262;2023-05-10T00:38:01;13.10;99.90
2190;DHT22;1101;51.056;7.262;2023-05-10T00:40:29;13.00;99.90
2190;DHT22;1101;51.056;7.262;2023-05-10T00:42:57;13.00;99.90
2190;DHT22;1101;51.056;7.262;2023-05-10T00:45:25;13.10;99.90
2190;DHT22;1101;51.056;7.262;2023-05-10T00:47:53;13.10;99.90
2190;DHT22;1101;51.056;7.262;2023-05-10T00:50:24;13.10;99.90
2190;DHT22;1101;51.056;7.262;2023-05-10T00:52:52;13.10;99.90
2190;DHT22;1101;51.056;7.262;2023-05-10T00:55:20;13.10;99.90
2190;DHT22;1101;51.056;7.262;2023-05-10T00:57:48;13.10;99.90
2190;DHT22;1101;51.056;7.262;2023-05-10T01:00:16;13.10;99.90
2190;DHT22;1101;51.056;7.262;2023-05-10T01:02:45;13.10;99.90
2190;DHT22;1101;51.056;7.262;2023-05-10T01:05:13;13.10;99.90
2190;DHT22;1101;51.056;7.262;2023-05-10T01:07:43;13.10;99.90
2190;DHT22;1101;51.056;7.262;2023-05-10T01:10:11;13.10;99.90
2190;DHT22;1101;51.056;7.262;2023-05-10T01:12:40;13.00;99.90
2190;DHT22;1101;51.056;7.262;2023-05-10T01:15:11;13.00;99.90
2190;DHT22;1101;51.056;7.262;2023-05-10T01:17:40;13.10;99.90
2190;DHT22;1101;51.056;7.262;2023-05-10T01:20:10;13.10;99.90
2190;DHT22;1101;51.056;7.262;2023-05-10T01:23:01;13.10;99.90
2190;DHT22;1101;51.056;7.262;2023-05-10T01:25:59;13.10;99.90
2190;DHT22;1101;51.056;7.262;2023-05-10T01:29:03;13.10;99.90
2190;DHT22;1101;51.056;7.262;2023-05-10T01:34:35;13.10;99.90
2190;DHT22;1101;51.056;7.262;2023-05-10T01:37:07;13.00;99.90
2190;DHT22;1101;51.056;7.262;2023-05-10T01:39:40;13.00;99.90
2190;DHT22;1101;51.056;7.262;2023-05-10T01:42:17;13.10;99.90
2190;DHT22;1101;51.056;7.262;2023-05-10T01:44:54;13.10;99.90
2190;DHT22;1101;51.056;7.262;2023-05-10T01:47:29;13.10;99.90
2190;DHT22;1101;51.056;7.262;2023-05-10T01:50:03;13.10;99.90
2190;DHT22;1101;51.056;7.262;2023-05-10T01:52:33;13.10;99.90
2190;DHT22;1101;51.056;7.262;2023-05-10T01:55:08;13.10;99.90
2190;DHT22;1101;51.056;7.262;2023-05-10T01:57:37;13.10;99.90
2190;DHT22;1101;51.056;7.262;2023-05-10T02:00:09;13.10;99.90
2190;DHT22;1101;51.056;7.262;2023-05-10T02:02:39;13.10;99.90
2190;DHT22;1101;51.056;7.262;2023-05-10T02:05:12;13.10;99.90
2190;DHT22;1101;51.056;7.262;2023-05-10T02:07:41;13.10;99.90
2190;DHT22;1101;51.056;7.262;2023-05-10T02:10:10;13.00;99.90
2190;DHT22;1101;51.056;7.262;2023-05-10T02:12:41;13.00;99.90
2190;DHT22;1101;51.056;7.262;2023-05-10T02:15:11;13.00;99.90
2190;DHT22;1101;51.056;7.262;2023-05-10T02:17:40;13.00;99.90
2190;DHT22;1101;51.056;7.262;2023-05-10T02:20:11;13.00;99.90
2190;DHT22;1101;51.056;7.262;2023-05-10T02:22:40;13.00;99.90
2190;DHT22;1101;51.056;7.262;2023-05-10T02:25:10;13.00;99.90
2190;DHT22;1101;51.056;7.262;2023-05-10T02:27:41;13.00;99.90
2190;DHT22;1101;51.056;7.262;2023-05-10T02:30:10;13.00;99.90
2190;DHT22;1101;51.056;7.262;2023-05-10T02:32:39;13.00;99.90
2190;DHT22;1101;51.056;7.262;2023-05-10T02:35:08;13.00;99.90
2190;DHT22;1101;51.056;7.262;2023-05-10T02:37:38;13.00;99.90
2190;DHT22;1101;51.056;7.262;2023-05-10T02:40:08;12.90;99.90
2190;DHT22;1101;51.056;7.262;2023-05-10T02:42:38;12.90;99.90
2190;DHT22;1101;51.056;7.262;2023-05-10T02:45:12;12.90;99.90
2190;DHT22;1101;51.056;7.262;2023-05-10T02:47:40;12.90;99.90
2190;DHT22;1101;51.056;7.262;2023-05-10T02:50:08;12.90;99.90
2190;DHT22;1101;51.056;7.262;2023-05-10T02:52:47;12.90;99.90
2190;DHT22;1101;51.056;7.262;2023-05-10T02:55:16;12.90;99.90
2190;DHT22;1101;51.056;7.262;2023-05-10T02:57:51;12.90;99.90
2190;DHT22;1101;51.056;7.262;2023-05-10T03:00:19;12.90;99.90
2190;DHT22;1101;51.056;7.262;2023-05-10T03:02:47;12.90;99.90
2190;DHT22;1101;51.056;7.262;2023-05-10T03:05:15;12.80;99.90
2190;DHT22;1101;51.056;7.262;2023-05-10T03:07:44;12.80;99.90
2190;DHT22;1101;51.056;7.262;2023-05-10T03:10:13;12.80;99.90
2190;DHT22;1101;51.056;7.262;2023-05-10T03:12:56;12.80;99.90
2190;DHT22;1101;51.056;7.262;2023-05-10T03:15:35;12.80;99.90
2190;DHT22;1101;51.056;7.262;2023-05-10T03:18:07;12.80;99.90
2190;DHT22;1101;51.056;7.262;2023-05-10T03:20:41;12.80;99.90
2190;DHT22;1101;51.056;7.262;2023-05-10T03:23:17;12.80;99.90
2190;DHT22;1101;51.056;7.262;2023-05-10T03:25:48;12.80;99.90
2190;DHT22;1101;51.056;7.262;2023-05-10T03:28:18;12.80;99.90
2190;DHT22;1101;51.056;7.262;2023-05-10T03:30:46;12.70;99.90
2190;DHT22;1101;51.056;7.262;2023-05-10T03:33:14;12.70;99.90
2190;DHT22;1101;51.056;7.262;2023-05-10T03:35:42;12.70;99.90
2190;DHT22;1101;51.056;7.262;2023-05-10T03:38:13;12.60;99.90
2190;DHT22;1101;51.056;7.262;2023-05-10T03:40:41;12.60;99.90
2190;DHT22;1101;51.056;7.262;2023-05-10T03:43:08;12.60;99.90
2190;DHT22;1101;51.056;7.262;2023-05-10T03:45:36;12.70;99.90
2190;DHT22;1101;51.056;7.262;2023-05-10T03:48:05;12.60;99.90
2190;DHT22;1101;51.056;7.262;2023-05-10T03:50:33;12.70;99.90
2190;DHT22;1101;51.056;7.262;2023-05-10T03:53:00;12.70;99.90
2190;DHT22;1101;51.056;7.262;2023-05-10T03:55:29;12.60;99.90
2190;DHT22;1101;51.056;7.262;2023-05-10T03:58:00;12.60;99.90
2190;DHT22;1101;51.056;7.262;2023-05-10T04:00:28;12.60;99.90
2190;DHT22;1101;51.056;7.262;2023-05-10T04:02:56;12.60;99.90
2190;DHT22;1101;51.056;7.262;2023-05-10T04:05:24;12.60;99.90
2190;DHT22;1101;51.056;7.262;2023-05-10T04:07:52;12.60;99.90
2190;DHT22;1101;51.056;7.262;2023-05-10T04:10:19;12.60;99.90
2190;DHT22;1101;51.056;7.262;2023-05-10T04:12:49;12.60;99.90
2190;DHT22;1101;51.056;7.262;2023-05-10T04:15:17;12.60;99.90
2190;DHT22;1101;51.056;7.262;2023-05-10T04:17:44;12.70;99.90
2190;DHT22;1101;51.056;7.262;2023-05-10T04:20:12;12.60;99.90
2190;DHT22;1101;51.056;7.262;2023-05-10T04:22:40;12.60;99.90
2190;DHT22;1101;51.056;7.262;2023-05-10T04:25:08;12.70;99.90
2190;DHT22;1101;51.056;7.262;2023-05-10T04:27:36;12.60;99.90
2190;DHT22;1101;51.056;7.262;2023-05-10T04:30:07;12.60;99.90
2190;DHT22;1101;51.056;7.262;2023-05-10T04:32:35;12.70;99.90
2190;DHT22;1101;51.056;7.262;2023-05-10T04:35:03;12.70;99.90
2190;DHT22;1101;51.056;7.262;2023-05-10T04:37:31;12.70;99.90
2190;DHT22;1101;51.056;7.262;2023-05-10T04:39:59;12.70;99.90
2190;DHT22;1101;51.056;7.262;2023-05-10T04:42:27;12.70;99.90
2190;DHT22;1101;51.056;7.262;2023-05-10T04:44:55;12.70;99.90
2190;DHT22;1101;51.056;7.262;2023-05-10T04:47:24;12.70;99.90
2190;DHT22;1101;51.056;7.262;2023-05-10T04:49:51;12.70;99.90
2190;DHT22;1101;51.056;7.262;2023-05-10T04:52:19;12.70;99.90
2190;DHT22;1101;51.056;7.262;2023-05-10T04:54:47;12.70;99.90
2190;DHT22;1101;51.056;7.262;2023-05-10T04:57:15;12.70;99.90
2190;DHT22;1101;51.056;7.262;2023-05-10T04:59:42;12.70;99.90
2190;DHT22;1101;51.056;7.262;2023-05-10T05:02:10;12.70;99.90
2190;DHT22;1101;51.056;7.262;2023-05-10T05:04:39;12.70;99.90
2190;DHT22;1101;51.056;7.262;2023-05-10T05:07:07;12.70;99.90
2190;DHT22;1101;51.056;7.262;2023-05-10T05:09:35;12.70;99.90
2190;DHT22;1101;51.056;7.262;2023-05-10T05:12:03;12.70;99.90
2190;DHT22;1101;51.056;7.262;2023-05-10T05:14:31;12.80;99.90
2190;DHT22;1101;51.056;7.262;2023-05-10T05:16:58;12.80;99.90
2190;DHT22;1101;51.056;7.262;2023-05-10T05:19:26;12.80;99.90
2190;DHT22;1101;51.056;7.262;2023-05-10T05:21:55;12.80;99.90
2190;DHT22;1101;51.056;7.262;2023-05-10T05:24:23;12.80;99.90
2190;DHT22;1101;51.056;7.262;2023-05-10T05:26:51;12.80;99.90
2190;DHT22;1101;51.056;7.262;2023-05-10T05:29:18;12.80;99.90
2190;DHT22;1101;51.056;7.262;2023-05-10T05:31:46;12.80;99.90
2190;DHT22;1101;51.056;7.262;2023-05-10T05:34:14;12.90;99.90
2190;DHT22;1101;51.056;7.262;2023-05-10T05:36:41;12.80;99.90
2190;DHT22;1101;51.056;7.262;2023-05-10T05:39:10;12.80;99.90
2190;DHT22;1101;51.056;7.262;2023-05-10T05:41:38;12.80;99.90
2190;DHT22;1101;51.056;7.262;2023-05-10T05:44:06;12.80;99.90
2190;DHT22;1101;51.056;7.262;2023-05-10T05:46:34;12.80;99.90
2190;DHT22;1101;51.056;7.262;2023-05-10T05:49:01;12.80;99.90
2190;DHT22;1101;51.056;7.262;2023-05-10T05:51:29;12.80;99.90
2190;DHT22;1101;51.056;7.262;2023-05-10T05:53:58;12.80;99.90
2190;DHT22;1101;51.056;7.262;2023-05-10T05:56:27;12.80;99.90
2190;DHT22;1101;51.056;7.262;2023-05-10T05:58:54;12.80;99.90
2190;DHT22;1101;51.056;7.262;2023-05-10T06:01:22;12.80;99.90
2190;DHT22;1101;51.056;7.262;2023-05-10T06:03:50;12.70;99.90
2190;DHT22;1101;51.056;7.262;2023-05-10T06:06:19;12.80;99.90
2190;DHT22;1101;51.056;7.262;2023-05-10T06:08:47;12.80;99.90
2190;DHT22;1101;51.056;7.262;2023-05-10T06:11:14;12.80;99.90
2190;DHT22;1101;51.056;7.262;2023-05-10T06:13:43;12.80;99.90
2190;DHT22;1101;51.056;7.262;2023-05-10T06:16:11;12.80;99.90
2190;DHT22;1101;51.056;7.262;2023-05-10T06:18:39;12.80;99.90
2190;DHT22;1101;51.056;7.262;2023-05-10T06:21:07;12.90;99.90
2190;DHT22;1101;51.056;7.262;2023-05-10T06:23:35;12.90;99.90
2190;DHT22;1101;51.056;7.262;2023-05-10T06:26:03;12.90;99.90
2190;DHT22;1101;51.056;7.262;2023-05-10T06:28:31;13.00;99.90
2190;DHT22;1101;51.056;7.262;2023-05-10T06:31:01;13.00;99.90
2190;DHT22;1101;51.056;7.262;2023-05-10T06:33:29;13.10;99.90
2190;DHT22;1101;51.056;7.262;2023-05-10T06:35:56;13.10;99.90
2190;DHT22;1101;51.056;7.262;2023-05-10T06:38:24;13.20;99.90
2190;DHT22;1101;51.056;7.262;2023-05-10T06:40:52;13.20;99.90
2190;DHT22;1101;51.056;7.262;2023-05-10T06:43:20;13.20;99.90
2190;DHT22;1101;51.056;7.262;2023-05-10T06:45:48;13.20;99.90
2190;DHT22;1101;51.056;7.262;2023-05-10T06:48:17;13.30;99.90
2190;DHT22;1101;51.056;7.262;2023-05-10T06:50:45;13.30;99.90
2190;DHT22;1101;51.056;7.262;2023-05-10T06:53:13;13.30;99.90
2190;DHT22;1101;51.056;7.262;2023-05-10T06:55:40;13.30;99.90
2190;DHT22;1101;51.056;7.262;2023-05-10T06:58:08;13.30;99.90
2190;DHT22;1101;51.056;7.262;2023-05-10T07:00:36;13.30;99.90
2190;DHT22;1101;51.056;7.262;2023-05-10T07:03:06;13.30;99.90
2190;DHT22;1101;51.056;7.262;2023-05-10T07:05:36;13.30;99.90
2190;DHT22;1101;51.056;7.262;2023-05-10T07:08:04;13.30;99.90
2190;DHT22;1101;51.056;7.262;2023-05-10T07:10:32;13.30;99.90
2190;DHT22;1101;51.056;7.262;2023-05-10T07:13:00;13.30;99.90
2190;DHT22;1101;51.056;7.262;2023-05-10T07:15:28;13.30;99.90
2190;DHT22;1101;51.056;7.262;2023-05-10T07:17:55;13.30;99.90
2190;DHT22;1101;51.056;7.262;2023-05-10T07:20:23;13.30;99.90
2190;DHT22;1101;51.056;7.262;2023-05-10T07:22:52;13.20;99.90
2190;DHT22;1101;51.056;7.262;2023-05-10T07:25:20;13.20;99.90
2190;DHT22;1101;51.056;7.262;2023-05-10T07:27:48;13.20;99.90
2190;DHT22;1101;51.056;7.262;2023-05-10T07:34:08;13.10;99.90
2190;DHT22;1101;51.056;7.262;2023-05-10T07:36:36;13.20;99.90
2190;DHT22;1101;51.056;7.262;2023-05-10T07:39:05;13.20;99.90
2190;DHT22;1101;51.056;7.262;2023-05-10T07:41:33;13.10;99.90
2190;DHT22;1101;51.056;7.262;2023-05-10T07:44:01;13.10;99.90
2190;DHT22;1101;51.056;7.262;2023-05-10T07:46:30;13.10;99.90
2190;DHT22;1101;51.056;7.262;2023-05-10T07:48:57;13.10;99.90
2190;DHT22;1101;51.056;7.262;2023-05-10T07:51:25;13.10;99.90
2190;DHT22;1101;51.056;7.262;2023-05-10T07:53:54;13.10;99.90
2190;DHT22;1101;51.056;7.262;2023-05-10T07:56:25;13.10;99.90
2190;DHT22;1101;51.056;7.262;2023-05-10T07:58:56;13.10;99.90
2190;DHT22;1101;51.056;7.262;2023-05-10T08:01:24;13.10;99.90
2190;DHT22;1101;51.056;7.262;2023-05-10T08:03:52;13.10;99.90
2190;DHT22;1101;51.056;7.262;2023-05-10T08:06:21;13.20;99.90
2190;DHT22;1101;51.056;7.262;2023-05-10T08:08:49;13.20;99.90
2190;DHT22;1101;51.056;7.262;2023-05-10T08:11:17;13.30;99.90
2190;DHT22;1101;51.056;7.262;2023-05-10T08:13:47;13.30;99.90
2190;DHT22;1101;51.056;7.262;2023-05-10T08:16:15;13.30;99.90
2190;DHT22;1101;51.056;7.262;2023-05-10T08:18:43;13.40;99.90
2190;DHT22;1101;51.056;7.262;2023-05-10T08:21:13;13.50;99.90
2190;DHT22;1101;51.056;7.262;2023-05-10T08:23:41;13.50;99.90
2190;DHT22;1101;51.056;7.262;2023-05-10T08:26:10;13.60;99.90
2190;DHT22;1101;51.056;7.262;2023-05-10T08:28:38;13.60;99.90
2190;DHT22;1101;51.056;7.262;2023-05-10T08:31:07;13.60;99.90
2190;DHT22;1101;51.056;7.262;2023-05-10T08:33:34;13.70;99.90
2190;DHT22;1101;51.056;7.262;2023-05-10T08:36:02;13.70;99.90
2190;DHT22;1101;51.056;7.262;2023-05-10T08:38:30;13.80;99.90
2190;DHT22;1101;51.056;7.262;2023-05-10T08:40:58;13.80;99.90
2190;DHT22;1101;51.056;7.262;2023-05-10T08:43:28;13.80;99.90
2190;DHT22;1101;51.056;7.262;2023-05-10T08:45:59;13.80;99.90
2190;DHT22;1101;51.056;7.262;2023-05-10T08:48:29;13.80;99.90
2190;DHT22;1101;51.056;7.262;2023-05-10T08:50:58;13.90;99.90
2190;DHT22;1101;51.056;7.262;2023-05-10T08:53:30;13.90;99.90
2190;DHT22;1101;51.056;7.262;2023-05-10T08:55:58;13.90;99.90
2190;DHT22;1101;51.056;7.262;2023-05-10T08:58:26;14.00;99.90
2190;DHT22;1101;51.056;7.262;2023-05-10T09:00:54;14.00;99.90
2190;DHT22;1101;51.056;7.262;2023-05-10T09:03:23;14.10;99.90
2190;DHT22;1101;51.056;7.262;2023-05-10T09:05:52;14.10;99.90
2190;DHT22;1101;51.056;7.262;2023-05-10T09:08:23;14.20;99.90
2190;DHT22;1101;51.056;7.262;2023-05-10T09:10:52;14.20;99.90
2190;DHT22;1101;51.056;7.262;2023-05-10T09:13:21;14.20;99.90
2190;DHT22;1101;51.056;7.262;2023-05-10T09:15:49;14.20;99.90
2190;DHT22;1101;51.056;7.262;2023-05-10T09:18:17;14.30;99.90
2190;DHT22;1101;51.056;7.262;2023-05-10T09:20:44;14.30;99.90
2190;DHT22;1101;51.056;7.262;2023-05-10T09:23:14;14.30;99.90
2190;DHT22;1101;51.056;7.262;2023-05-10T09:25:42;14.30;99.90
2190;DHT22;1101;51.056;7.262;2023-05-10T09:28:11;14.30;99.90
2190;DHT22;1101;51.056;7.262;2023-05-10T09:30:39;14.30;99.90
2190;DHT22;1101;51.056;7.262;2023-05-10T09:33:07;14.40;99.90
2190;DHT22;1101;51.056;7.262;2023-05-10T09:35:34;14.40;99.90
2190;DHT22;1101;51.056;7.262;2023-05-10T09:38:03;14.40;99.90
2190;DHT22;1101;51.056;7.262;2023-05-10T09:40:33;14.40;99.90
2190;DHT22;1101;51.056;7.262;2023-05-10T09:43:03;14.40;99.90
2190;DHT22;1101;51.056;7.262;2023-05-10T09:45:33;14.30;99.90
2190;DHT22;1101;51.056;7.262;2023-05-10T09:48:05;14.30;99.90
2190;DHT22;1101;51.056;7.262;2023-05-10T09:50:33;14.30;99.90
2190;DHT22;1101;51.056;7.262;2023-05-10T09:53:02;14.20;99.90
2190;DHT22;1101;51.056;7.262;2023-05-10T09:55:40;14.20;99.90
2190;DHT22;1101;51.056;7.262;2023-05-10T09:58:11;14.10;99.90
2190;DHT22;1101;51.056;7.262;2023-05-10T10:00:40;14.10;99.90
2190;DHT22;1101;51.056;7.262;2023-05-10T10:03:12;14.10;99.90
2190;DHT22;1101;51.056;7.262;2023-05-10T10:05:41;14.10;99.90
2190;DHT22;1101;51.056;7.262;2023-05-10T10:08:10;14.00;99.90
2190;DHT22;1101;51.056;7.262;2023-05-10T10:10:41;14.00;99.90
2190;DHT22;1101;51.056;7.262;2023-05-10T10:13:11;14.00;99.90
2190;DHT22;1101;51.056;7.262;2023-05-10T10:15:39;14.00;99.90
2190;DHT22;1101;51.056;7.262;2023-05-10T10:18:07;14.00;99.90
2190;DHT22;1101;51.056;7.262;2023-05-10T10:20:40;14.00;99.90
2190;DHT22;1101;51.056;7.262;2023-05-10T10:23:08;14.00;99.90
2190;DHT22;1101;51.056;7.262;2023-05-10T10:25:36;13.90;99.90
2190;DHT22;1101;51.056;7.262;2023-05-10T10:28:23;13.90;99.90
2190;DHT22;1101;51.056;7.262;2023-05-10T10:30:55;13.90;99.90
2190;DHT22;1101;51.056;7.262;2023-05-10T10:33:36;14.00;99.90
2190;DHT22;1101;51.056;7.262;2023-05-10T10:36:07;14.00;99.90
2190;DHT22;1101;51.056;7.262;2023-05-10T10:38:54;14.10;99.90
2190;DHT22;1101;51.056;7.262;2023-05-10T10:41:30;14.20;99.90
2190;DHT22;1101;51.056;7.262;2023-05-10T10:44:26;14.30;99.90
2190;DHT22;1101;51.056;7.262;2023-05-10T10:47:05;14.40;99.90
2190;DHT22;1101;51.056;7.262;2023-05-10T10:49:42;14.50;99.90
2190;DHT22;1101;51.056;7.262;2023-05-10T10:52:23;14.40;99.90
2190;DHT22;1101;51.056;7.262;2023-05-10T10:54:59;14.40;99.90
2190;DHT22;1101;51.056;7.262;2023-05-10T10:57:30;14.30;99.90
2190;DHT22;1101;51.056;7.262;2023-05-10T11:00:25;14.30;99.90
2190;DHT22;1101;51.056;7.262;2023-05-10T11:02:56;14.30;99.90
2190;DHT22;1101;51.056;7.262;2023-05-10T11:05:35;14.30;99.90
2190;DHT22;1101;51.056;7.262;2023-05-10T11:08:09;14.30;99.90
2190;DHT22;1101;51.056;7.262;2023-05-10T11:10:38;14.30;99.90
2190;DHT22;1101;51.056;7.262;2023-05-10T11:13:07;14.30;99.90
2190;DHT22;1101;51.056;7.262;2023-05-10T11:15:38;14.30;99.90
2190;DHT22;1101;51.056;7.262;2023-05-10T11:18:19;14.30;99.90
2190;DHT22;1101;51.056;7.262;2023-05-10T11:20:51;14.20;99.90
2190;DHT22;1101;51.056;7.262;2023-05-10T11:23:18;14.20;99.90
2190;DHT22;1101;51.056;7.262;2023-05-10T11:25:48;14.20;99.90
2190;DHT22;1101;51.056;7.262;2023-05-10T11:28:17;14.10;99.90
2190;DHT22;1101;51.056;7.262;2023-05-10T11:30:47;14.10;99.90
2190;DHT22;1101;51.056;7.262;2023-05-10T11:33:15;14.10;99.90
2190;DHT22;1101;51.056;7.262;2023-05-10T11:35:44;14.10;99.90
2190;DHT22;1101;51.056;7.262;2023-05-10T11:38:12;14.10;99.90
2190;DHT22;1101;51.056;7.262;2023-05-10T11:40:41;14.10;99.90
2190;DHT22;1101;51.056;7.262;2023-05-10T11:43:09;14.10;99.90
2190;DHT22;1101;51.056;7.262;2023-05-10T11:45:41;14.10;99.90
2190;DHT22;1101;51.056;7.262;2023-05-10T11:48:10;14.10;99.90
2190;DHT22;1101;51.056;7.262;2023-05-10T11:50:38;14.10;99.90
2190;DHT22;1101;51.056;7.262;2023-05-10T11:53:05;14.20;99.90
2190;DHT22;1101;51.056;7.262;2023-05-10T11:55:33;14.30;99.90
2190;DHT22;1101;51.056;7.262;2023-05-10T11:58:02;14.40;99.90
2190;DHT22;1101;51.056;7.262;2023-05-10T12:00:30;14.50;99.90
2190;DHT22;1101;51.056;7.262;2023-05-10T12:03:00;14.60;99.90
2190;DHT22;1101;51.056;7.262;2023-05-10T12:05:33;14.80;99.90
2190;DHT22;1101;51.056;7.262;2023-05-10T12:08:14;14.90;99.90
2190;DHT22;1101;51.056;7.262;2023-05-10T12:10:42;15.10;99.90
2190;DHT22;1101;51.056;7.262;2023-05-10T12:13:13;15.30;99.90
2190;DHT22;1101;51.056;7.262;2023-05-10T12:15:42;15.30;99.90
2190;DHT22;1101;51.056;7.262;2023-05-10T12:18:11;15.40;99.90
2190;DHT22;1101;51.056;7.262;2023-05-10T12:20:40;15.40;99.90
2190;DHT22;1101;51.056;7.262;2023-05-10T12:23:09;15.40;99.90
2190;DHT22;1101;51.056;7.262;2023-05-10T12:25:38;15.40;99.90
2190;DHT22;1101;51.056;7.262;2023-05-10T12:28:08;15.40;99.90
2190;DHT22;1101;51.056;7.262;2023-05-10T12:30:36;15.50;99.90
2190;DHT22;1101;51.056;7.262;2023-05-10T12:35:47;15.50;99.90
2190;DHT22;1101;51.056;7.262;2023-05-10T12:38:28;15.50;99.90
2190;DHT22;1101;51.056;7.262;2023-05-10T12:40:58;15.50;99.90
2190;DHT22;1101;51.056;7.262;2023-05-10T12:43:26;15.50;99.90
2190;DHT22;1101;51.056;7.262;2023-05-10T12:45:54;15.40;99.90
2190;DHT22;1101;51.056;7.262;2023-05-10T12:48:22;15.40;99.90
2190;DHT22;1101;51.056;7.262;2023-05-10T12:50:51;15.40;99.90
2190;DHT22;1101;51.056;7.262;2023-05-10T12:53:18;15.40;99.90
2190;DHT22;1101;51.056;7.262;2023-05-10T12:55:46;15.50;99.90
2190;DHT22;1101;51.056;7.262;2023-05-10T12:58:14;15.60;99.90
2190;DHT22;1101;51.056;7.262;2023-05-10T13:01:00;15.60;99.90
2190;DHT22;1101;51.056;7.262;2023-05-10T13:03:28;15.60;99.90
2190;DHT22;1101;51.056;7.262;2023-05-10T13:05:57;15.60;99.90
2190;DHT22;1101;51.056;7.262;2023-05-10T13:08:25;15.70;99.90
2190;DHT22;1101;51.056;7.262;2023-05-10T13:10:52;15.90;99.90
2190;DHT22;1101;51.056;7.262;2023-05-10T13:13:21;16.00;99.90
2190;DHT22;1101;51.056;7.262;2023-05-10T13:15:48;16.10;99.90
2190;DHT22;1101;51.056;7.262;2023-05-10T13:18:16;16.20;99.90
2190;DHT22;1101;51.056;7.262;2023-05-10T13:20:44;16.30;99.90
2190;DHT22;1101;51.056;7.262;2023-05-10T13:23:13;16.30;99.90
2190;DHT22;1101;51.056;7.262;2023-05-10T13:25:41;16.40;99.90
2190;DHT22;1101;51.056;7.262;2023-05-10T13:28:09;16.40;99.90
2190;DHT22;1101;51.056;7.262;2023-05-10T13:30:36;16.30;99.90
2190;DHT22;1101;51.056;7.262;2023-05-10T13:33:04;16.40;99.90
2190;DHT22;1101;51.056;7.262;2023-05-10T13:35:32;16.40;99.90
2190;DHT22;1101;51.056;7.262;2023-05-10T13:38:00;16.50;99.90
2190;DHT22;1101;51.056;7.262;2023-05-10T13:40:29;16.60;99.90
2190;DHT22;1101;51.056;7.262;2023-05-10T13:42:57;16.60;99.90
2190;DHT22;1101;51.056;7.262;2023-05-10T13:45:24;16.70;99.90
2190;DHT22;1101;51.056;7.262;2023-05-10T13:47:52;16.70;99.90
2190;DHT22;1101;51.056;7.262;2023-05-10T13:50:20;16.70;99.90
2190;DHT22;1101;51.056;7.262;2023-05-10T13:52:48;16.70;99.90
2190;DHT22;1101;51.056;7.262;2023-05-10T13:55:16;16.60;99.90
2190;DHT22;1101;51.056;7.262;2023-05-10T13:57:45;16.60;99.90
2190;DHT22;1101;51.056;7.262;2023-05-10T14:00:14;16.70;99.90
2190;DHT22;1101;51.056;7.262;2023-05-10T14:02:42;16.80;99.90
2190;DHT22;1101;51.056;7.262;2023-05-10T14:05:10;17.00;99.90
2190;DHT22;1101;51.056;7.262;2023-05-10T14:07:38;17.10;99.90
2190;DHT22;1101;51.056;7.262;2023-05-10T14:10:06;17.10;99.90
2190;DHT22;1101;51.056;7.262;2023-05-10T14:12:34;17.10;99.90
2190;DHT22;1101;51.056;7.262;2023-05-10T14:15:04;17.00;99.90
2190;DHT22;1101;51.056;7.262;2023-05-10T14:17:33;16.90;99.90
2190;DHT22;1101;51.056;7.262;2023-05-10T14:20:01;16.80;99.90
2190;DHT22;1101;51.056;7.262;2023-05-10T14:22:30;16.70;99.90
2190;DHT22;1101;51.056;7.262;2023-05-10T14:24:57;16.50;99.90
2190;DHT22;1101;51.056;7.262;2023-05-10T14:27:26;16.40;99.90
2190;DHT22;1101;51.056;7.262;2023-05-10T14:29:54;16.40;99.90
2190;DHT22;1101;51.056;7.262;2023-05-10T14:32:23;16.50;99.90
2190;DHT22;1101;51.056;7.262;2023-05-10T14:34:51;16.60;99.90
2190;DHT22;1101;51.056;7.262;2023-05-10T14:37:19;16.80;99.90
2190;DHT22;1101;51.056;7.262;2023-05-10T14:39:47;17.10;99.90
2190;DHT22;1101;51.056;7.262;2023-05-10T14:42:14;17.30;99.90
2190;DHT22;1101;51.056;7.262;2023-05-10T14:44:42;17.40;99.90
2190;DHT22;1101;51.056;7.262;2023-05-10T14:47:10;17.40;99.90
2190;DHT22;1101;51.056;7.262;2023-05-10T14:49:39;17.30;99.70
2190;DHT22;1101;51.056;7.262;2023-05-10T14:52:07;17.20;99.70
2190;DHT22;1101;51.056;7.262;2023-05-10T14:54:35;17.20;99.80
2190;DHT22;1101;51.056;7.262;2023-05-10T14:57:02;17.10;99.70
2190;DHT22;1101;51.056;7.262;2023-05-10T14:59:30;17.10;99.90
2190;DHT22;1101;51.056;7.262;2023-05-10T15:01:59;17.10;99.80
2190;DHT22;1101;51.056;7.262;2023-05-10T15:04:27;17.10;99.80
2190;DHT22;1101;51.056;7.262;2023-05-10T15:06:56;17.10;99.90
2190;DHT22;1101;51.056;7.262;2023-05-10T15:09:25;17.20;99.80
2190;DHT22;1101;51.056;7.262;2023-05-10T15:11:54;17.20;99.70
2190;DHT22;1101;51.056;7.262;2023-05-10T15:14:21;17.20;99.70
2190;DHT22;1101;51.056;7.262;2023-05-10T15:16:49;17.20;99.70
2190;DHT22;1101;51.056;7.262;2023-05-10T15:19:17;17.30;99.80
2190;DHT22;1101;51.056;7.262;2023-05-10T15:21:45;17.30;99.80
2190;DHT22;1101;51.056;7.262;2023-05-10T15:24:15;17.30;99.60
2190;DHT22;1101;51.056;7.262;2023-05-10T15:26:42;17.40;99.70
2190;DHT22;1101;51.056;7.262;2023-05-10T15:29:10;17.40;99.60
2190;DHT22;1101;51.056;7.262;2023-05-10T15:31:38;17.40;99.50
2190;DHT22;1101;51.056;7.262;2023-05-10T15:34:06;17.40;99.30
2190;DHT22;1101;51.056;7.262;2023-05-10T15:36:33;17.50;99.60
2190;DHT22;1101;51.056;7.262;2023-05-10T15:39:01;17.50;99.50
2190;DHT22;1101;51.056;7.262;2023-05-10T15:41:31;17.60;99.20
2190;DHT22;1101;51.056;7.262;2023-05-10T15:43:59;17.60;99.10
2190;DHT22;1101;51.056;7.262;2023-05-10T15:46:27;17.50;99.10
2190;DHT22;1101;51.056;7.262;2023-05-10T15:48:55;17.50;99.10
2190;DHT22;1101;51.056;7.262;2023-05-10T15:51:23;17.50;99.00
2190;DHT22;1101;51.056;7.262;2023-05-10T15:53:50;17.50;99.10
2190;DHT22;1101;51.056;7.262;2023-05-10T15:56:34;17.50;99.00
2190;DHT22;1101;51.056;7.262;2023-05-10T15:59:02;17.50;99.00
2190;DHT22;1101;51.056;7.262;2023-05-10T16:01:31;17.50;98.90
2190;DHT22;1101;51.056;7.262;2023-05-10T16:03:59;17.50;98.70
2190;DHT22;1101;51.056;7.262;2023-05-10T16:06:27;17.40;98.60
2190;DHT22;1101;51.056;7.262;2023-05-10T16:08:55;17.30;98.50
2190;DHT22;1101;51.056;7.262;2023-05-10T16:11:23;17.30;98.70
2190;DHT22;1101;51.056;7.262;2023-05-10T16:13:52;17.20;98.80
2190;DHT22;1101;51.056;7.262;2023-05-10T16:16:20;17.10;98.80
2190;DHT22;1101;51.056;7.262;2023-05-10T16:18:48;17.00;98.80
2190;DHT22;1101;51.056;7.262;2023-05-10T16:21:16;17.00;98.90
2190;DHT22;1101;51.056;7.262;2023-05-10T16:23:44;17.00;98.90
2190;DHT22;1101;51.056;7.262;2023-05-10T16:26:12;16.90;98.80